KLNC

Lancaster Regional Airport

Lancaster, Texas, USA
METAR KLNC 191515Z AUTO 35005KT 10SM OVC037 05/00 A3027 RMK AO2 T00520000
Observed Flight Rules
Nov-19 @ 15:15 UTC (25 minutes ago) Visual Flight Rules
Wind Visibility Clouds
350° at 5 knots 10 miles
  • Overcast at 3,700' AGL
Temperatures Readings
Current 5°C / 41°F
Dewpoint 0°C / 32°F
Humidity 70%
Altimeter 30.27" Hg
Pressure 1025 hPa
Elevation 153
METAR KLNC 191515Z AUTO 35005KT 10SM OVC037 05/00 A3027 RMK AO2 T00520000
Observed Flight Rules
Nov-19 @ 15:15 UTC
(25 minutes ago)
VFR
Wind Visibility
350° at 5 knots 10 miles
Clouds
  • Overcast at 3,700' AGL
Temperature Dewpoint
5°C / 41°F 0°C / 32°F
Humidity Altimeter Pressure
70% 30.27" Hg 1025 hPa